Time;durP1;ratioP1;P1;durP2;ratioP2;P2;SDS_P1;SDS_P2;PMS_P1;PMS_P2;Temp;Humidity;BMP_temperature;BMP_pressure;BME280_temperature;BME280_humidity;BME280_pressure;Samples;Min_cycle;Max_cycle;Signal;HPM_P1;HPM_P2
2023/04/05 03:55:26;;;;;;;2.40;1.30;;;;;;;1.95;93.25;100245.06;519346;26;21068;-90
2023/04/05 03:57:55;;;;;;;6.82;1.30;;;;;;;1.66;93.79;100202.19;4946992;29;20050;-94
2023/04/05 04:00:23;;;;;;;1.83;1.00;;;;;;;1.71;93.08;100215.97;4931989;29;20044;-94
2023/04/05 04:10:07;;;;;;;2.13;1.17;;;;;;;1.88;92.87;100239.38;4942246;29;20135;-94
2023/04/05 04:13:18;;;;;;;2.30;1.00;;;;;;;1.66;92.66;100224.25;4918969;29;20421;-92
2023/04/05 04:16:10;;;;;;;2.35;1.30;;;;;;;1.65;92.99;100221.69;4970459;23;20063;-95
2023/04/05 04:18:45;;;;;;;3.67;1.70;;;;;;;1.78;93.44;100241.03;4926698;29;20112;-94
2023/04/05 04:21:54;;;;;;;2.78;1.50;;;;;;;1.71;93.73;100234.50;4937194;29;20118;-94
2023/04/05 04:27:57;;;;;;;3.20;1.58;;;;;;;1.75;93.79;100224.50;4945875;29;20051;-92
2023/04/05 04:30:52;;;;;;;3.92;1.55;;;;;;;1.66;92.63;100231.31;4928542;29;20130;-94
2023/04/05 04:33:43;;;;;;;3.15;1.60;;;;;;;1.61;92.63;100220.22;4920828;29;20051;-90
2023/04/05 04:36:33;;;;;;;3.35;1.75;;;;;;;1.85;93.04;100267.91;4917183;28;20048;-90
2023/04/05 04:39:06;;;;;;;3.17;1.67;;;;;;;1.75;93.65;100258.97;4928662;28;20028;-92
2023/04/05 04:42:03;;;;;;;3.22;1.55;;;;;;;1.81;93.84;100254.06;4980386;23;20059;-91
2023/04/05 04:44:53;;;;;;;2.90;1.60;;;;;;;1.73;93.22;100240.50;4970742;23;20048;-90
2023/04/05 04:47:53;;;;;;;4.10;1.80;;;;;;;1.96;94.00;100261.81;4956791;29;20047;-91
2023/04/05 04:50:31;;;;;;;5.10;2.83;;;;;;;1.63;93.56;100234.22;4947616;29;20135;-92
2023/04/05 04:53:16;;;;;;;4.07;1.77;;;;;;;1.86;92.82;100251.91;4951402;29;20031;-95
2023/04/05 04:55:43;;;;;;;3.30;1.90;;;;;;;1.85;93.46;100250.22;4938363;29;20051;-91
2023/04/05 04:58:11;;;;;;;2.67;1.70;;;;;;;1.87;93.38;100261.56;4922267;29;20051;-93
2023/04/05 05:00:51;;;;;;;2.80;1.63;;;;;;;1.81;93.29;100235.50;4923298;29;20086;-93
2023/04/05 05:03:17;;;;;;;5.32;2.17;;;;;;;1.88;93.41;100249.97;4953006;29;20031;-91
2023/04/05 05:05:50;;;;;;;3.55;2.05;;;;;;;1.96;92.80;100245.91;4913591;29;20068;-91
2023/04/05 05:08:18;;;;;;;3.22;2.10;;;;;;;1.85;93.63;100234.31;4940136;29;20042;-89
2023/04/05 05:10:49;;;;;;;4.63;2.70;;;;;;;2.12;93.37;100283.56;4942523;29;20032;-90
2023/04/05 05:13:15;;;;;;;4.55;2.47;;;;;;;2.18;92.79;100261.91;4930827;29;20036;-89
2023/04/05 05:15:47;;;;;;;4.22;2.25;;;;;;;2.11;93.21;100239.44;4945849;29;20043;-88
2023/04/05 05:18:16;;;;;;;4.35;2.45;;;;;;;2.10;92.42;100240.41;4948000;29;20075;-92
2023/04/05 05:20:50;;;;;;;5.82;2.85;;;;;;;2.18;93.53;100269.84;4923367;29;20424;-94
2023/04/05 05:23:20;;;;;;;4.18;2.47;;;;;;;2.06;93.00;100257.50;4933478;29;20054;-92
2023/04/05 05:25:50;;;;;;;4.43;2.80;;;;;;;2.23;92.75;100266.84;4925978;29;20062;-92
2023/04/05 05:28:16;;;;;;;5.78;3.92;;;;;;;2.40;93.22;100281.47;4941470;29;20039;-87
2023/04/05 05:30:43;;;;;;;6.38;3.10;;;;;;;2.12;93.08;100257.03;4942447;29;20092;-90
2023/04/05 05:33:12;;;;;;;;;;;;;;;2.43;93.03;100305.09;4920390;29;20046;-89
2023/04/05 05:35:42;;;;;;;5.22;2.63;;;;;;;2.03;91.53;100236.53;4925819;29;20569;-90
2023/04/05 05:38:10;;;;;;;5.05;2.78;;;;;;;2.14;92.46;100265.72;4930386;29;20051;-88
2023/04/05 05:40:36;;;;;;;6.97;3.65;;;;;;;2.13;93.45;100258.75;4915873;29;20088;-90
2023/04/05 05:43:03;;;;;;;7.28;3.65;;;;;;;2.18;92.82;100280.47;4912365;29;20040;-91
2023/04/05 05:45:28;;;;;;;;;;;;;;;2.33;93.36;100307.63;4939561;29;20134;-87
2023/04/05 05:47:56;;;;;;;5.40;2.88;;;;;;;2.14;93.30;100280.81;4933173;29;19957;-90
2023/04/05 05:50:23;;;;;;;7.18;3.20;;;;;;;2.14;92.23;100281.66;4932250;29;20583;-90
2023/04/05 05:52:54;;;;;;;6.03;3.55;;;;;;;2.41;92.83;100315.84;4946996;29;20043;-89
2023/04/05 05:55:21;;;;;;;5.95;3.45;;;;;;;2.32;92.41;100290.84;4927698;29;20496;-91
2023/04/05 05:57:46;;;;;;;6.18;3.30;;;;;;;2.30;92.45;100268.91;4913323;29;20527;-89
2023/04/05 06:00:13;;;;;;;8.10;3.78;;;;;;;2.29;92.27;100272.53;4913629;29;20130;-89
2023/04/05 06:02:40;;;;;;;8.38;3.47;;;;;;;2.25;92.46;100257.81;4917541;29;20048;-89
2023/04/05 06:05:09;;;;;;;7.05;3.75;;;;;;;2.47;92.20;100299.44;4938721;29;20047;-89
2023/04/05 06:07:36;;;;;;;7.15;4.20;;;;;;;2.47;92.36;100311.88;4918173;29;20365;-90
2023/04/05 06:10:02;;;;;;;5.63;3.30;;;;;;;2.39;91.33;100290.38;4933277;29;20550;-89
2023/04/05 06:12:29;;;;;;;5.70;3.33;;;;;;;2.37;91.03;100305.59;4901648;29;20113;-89
2023/04/05 06:15:03;;;;;;;6.40;3.63;;;;;;;2.51;91.71;100316.84;4938640;29;20576;-90
2023/04/05 06:17:28;;;;;;;5.90;3.17;;;;;;;2.68;91.53;100318.19;4938709;29;20051;-89
2023/04/05 06:19:54;;;;;;;6.20;3.40;;;;;;;2.67;90.93;100339.53;4924999;29;20047;-90
2023/04/05 06:22:29;;;;;;;6.18;3.13;;;;;;;2.62;90.63;100323.97;4933828;29;20036;-91
2023/04/05 06:24:55;;;;;;;7.72;3.58;;;;;;;2.47;90.29;100301.25;4922210;29;20145;-90
2023/04/05 06:27:23;;;;;;;5.63;3.13;;;;;;;2.58;89.49;100311.91;4940678;29;20035;-90
2023/04/05 06:29:54;;;;;;;7.05;3.10;;;;;;;2.61;87.64;100340.84;4961562;29;20048;-88
2023/04/05 06:32:23;;;;;;;5.90;3.13;;;;;;;2.73;89.36;100355.81;4922459;29;20048;-90
2023/04/05 06:34:52;;;;;;;4.88;2.40;;;;;;;2.62;86.59;100328.41;4915101;29;20473;-89
2023/04/05 06:37:23;;;;;;;6.00;2.88;;;;;;;2.90;87.63;100390.84;4912169;29;20496;-88
2023/04/05 06:39:58;;;;;;;6.75;2.85;;;;;;;2.85;87.22;100369.97;4932865;29;20119;-92
2023/04/05 06:42:25;;;;;;;5.20;3.00;;;;;;;2.95;86.63;100396.69;4940955;29;20061;-89
2023/04/05 06:44:52;;;;;;;9.10;2.90;;;;;;;3.03;87.16;100383.63;4931173;29;20493;-91
2023/04/05 06:47:19;;;;;;;5.07;2.80;;;;;;;3.10;85.74;100395.47;4935122;29;20126;-90
2023/04/05 06:49:46;;;;;;;4.18;2.38;;;;;;;3.17;85.72;100409.97;4930266;29;20056;-90
2023/04/05 06:52:12;;;;;;;5.53;2.95;;;;;;;3.11;85.46;100377.72;4912659;29;20039;-90
2023/04/05 06:54:39;;;;;;;5.47;2.97;;;;;;;3.07;85.56;100366.50;4938668;29;20115;-89
2023/04/05 06:57:04;;;;;;;4.07;2.33;;;;;;;3.12;83.83;100358.19;4914518;29;20483;-89
2023/04/05 06:59:34;;;;;;;4.53;2.78;;;;;;;3.01;84.99;100369.63;4906866;29;20472;-92
2023/04/05 07:02:02;;;;;;;3.78;2.20;;;;;;;3.05;83.07;100373.75;4939547;29;20112;-92
2023/04/05 07:04:35;;;;;;;5.00;2.92;;;;;;;3.29;84.85;100402.00;4913606;29;20040;-93
2023/04/05 07:07:03;;;;;;;5.03;3.08;;;;;;;3.23;84.98;100379.44;4919489;29;20047;-91
2023/04/05 07:09:33;;;;;;;4.13;2.58;;;;;;;3.47;84.52;100421.00;4928064;29;20047;-90
2023/04/05 07:12:06;;;;;;;4.80;2.53;;;;;;;3.29;84.15;100370.13;4943570;29;20130;-92
2023/04/05 07:14:42;;;;;;;6.13;2.90;;;;;;;3.41;85.01;100395.72;4908703;29;20032;-92
2023/04/05 07:17:28;;;;;;;4.55;2.53;;;;;;;3.15;83.77;100366.75;4939249;29;20031;-90
2023/04/05 07:19:59;;;;;;;4.93;2.53;;;;;;;3.45;82.88;100389.22;4926854;29;20047;-93
2023/04/05 07:22:32;;;;;;;4.63;2.60;;;;;;;3.34;83.19;100358.16;4933289;29;20134;-90
2023/04/05 07:24:59;;;;;;;4.13;2.60;;;;;;;3.65;83.38;100402.72;4926794;29;20519;-90
2023/04/05 07:27:25;;;;;;;5.05;3.08;;;;;;;3.89;83.97;100389.28;4928484;29;20563;-88
2023/04/05 07:29:55;;;;;;;7.38;4.72;;;;;;;4.17;81.26;100425.13;4946795;29;20158;-90
2023/04/05 07:32:45;;;;;;;6.43;3.10;;;;;;;4.06;82.57;100410.03;4926729;29;20044;-88
2023/04/05 07:35:12;;;;;;;3.60;2.33;;;;;;;4.08;80.34;100385.97;4903702;29;20040;-87
2023/04/05 07:37:38;;;;;;;4.20;2.45;;;;;;;4.19;79.01;100402.72;4932506;29;20039;-85
2023/04/05 07:40:05;;;;;;;4.75;2.50;;;;;;;4.34;79.54;100429.06;4912973;29;20048;-89
2023/04/05 07:42:32;;;;;;;4.85;2.28;;;;;;;4.62;77.39;100422.28;4932971;29;20042;-93
2023/04/05 07:44:59;;;;;;;12.70;2.85;;;;;;;4.89;77.66;100431.56;4916870;29;20114;-89
2023/04/05 07:47:33;;;;;;;5.13;2.63;;;;;;;5.20;77.00;100445.81;4935297;29;20103;-87
2023/04/05 07:50:02;;;;;;;5.78;2.72;;;;;;;5.16;76.46;100428.38;4939815;29;20485;-91
2023/04/05 07:52:28;;;;;;;5.18;2.60;;;;;;;5.20;75.30;100414.66;4933327;29;20042;-89
2023/04/05 07:54:59;;;;;;;4.97;2.75;;;;;;;5.56;75.24;100407.09;4915765;29;20060;-93
2023/04/05 07:57:26;;;;;;;4.95;3.15;;;;;;;5.68;73.48;100411.34;4916690;29;20036;-88
2023/04/05 07:59:54;;;;;;;4.70;2.88;;;;;;;6.02;74.44;100442.25;4915702;29;20136;-88
2023/04/05 08:02:20;;;;;;;4.57;2.88;;;;;;;6.58;72.44;100432.75;4937008;29;20091;-92
2023/04/05 08:05:08;;;;;;;4.38;2.58;;;;;;;6.40;69.40;100432.63;4895496;29;20134;-92
2023/04/05 08:07:38;;;;;;;3.55;2.33;;;;;;;6.32;70.67;100433.28;4944796;29;20044;-93
2023/04/05 08:10:06;;;;;;;7.13;2.90;;;;;;;6.67;70.79;100437.25;4931245;29;20040;-88
2023/04/05 08:12:34;;;;;;;4.05;2.53;;;;;;;6.68;70.13;100429.09;4945944;29;20032;-89
2023/04/05 08:15:01;;;;;;;5.05;2.60;;;;;;;6.96;70.26;100430.03;4932937;29;20043;-90
2023/04/05 08:17:33;;;;;;;;;;;;;;;7.29;68.81;100435.88;4932099;29;20111;-92
2023/04/05 08:20:03;;;;;;;3.80;2.20;;;;;;;7.25;67.88;100415.75;4924964;29;19914;-94
2023/04/05 08:22:36;;;;;;;6.05;2.78;;;;;;;7.32;66.63;100422.22;4921857;29;20100;-93
2023/04/05 08:25:25;;;;;;;3.00;1.92;;;;;;;7.29;67.07;100403.78;4903908;29;20027;-94
2023/04/05 08:28:05;;;;;;;4.55;2.47;;;;;;;7.01;67.37;100431.47;4940613;28;20028;-92
2023/04/05 08:30:39;;;;;;;3.80;2.20;;;;;;;7.40;67.60;100417.00;4938249;29;20046;-94
2023/04/05 08:33:15;;;;;;;3.85;2.38;;;;;;;7.21;67.30;100440.25;4944117;29;20028;-93
2023/04/05 08:36:08;;;;;;;4.95;2.85;;;;;;;7.12;68.30;100426.78;4954723;29;20077;-94
2023/04/05 08:38:44;;;;;;;4.30;2.40;;;;;;;7.30;67.64;100434.03;5075963;23;20033;-94
2023/04/05 08:41:56;;;;;;;6.57;2.50;;;;;;;7.14;66.40;100414.13;4936278;28;20055;-95
2023/04/05 08:45:07;;;;;;;4.25;2.20;;;;;;;7.60;67.94;100457.88;5000427;23;20112;-95
2023/04/05 08:47:55;;;;;;;4.05;2.30;;;;;;;6.88;67.70;100416.56;4964434;23;20070;-93
2023/04/05 08:50:48;;;;;;;4.22;2.50;;;;;;;6.83;68.54;100426.81;4977130;28;20043;-94
2023/04/05 08:53:27;;;;;;;5.65;2.40;;;;;;;6.92;68.06;100450.03;5055768;23;20042;-95
2023/04/05 09:11:10;;;;;;;3.20;2.00;;;;;;;6.75;70.37;100454.25;4948930;28;20044;-95
2023/04/05 09:22:59;;;;;;;4.47;2.42;;;;;;;7.15;69.89;100471.09;4936438;28;20067;-95
2023/04/05 09:29:02;;;;;;;5.47;2.70;;;;;;;6.96;69.54;100486.19;4954288;23;20091;-94
2023/04/05 09:57:00;;;;;;;9.98;3.67;;;;;;;9.60;61.48;100490.81;4946159;28;20085;-93
2023/04/05 10:00:37;;;;;;;7.50;3.40;;;;;;;9.26;61.51;100462.09;4974292;28;20070;-94
2023/04/05 10:03:52;;;;;;;6.40;2.63;;;;;;;9.22;61.59;100491.06;4979841;23;20071;-96
2023/04/05 10:07:44;;;;;;;6.50;2.55;;;;;;;8.71;62.47;100462.31;4967110;29;20058;-95
2023/04/05 10:11:10;;;;;;;8.10;2.78;;;;;;;8.99;62.53;100498.78;5025766;23;20076;-96
2023/04/05 10:32:31;;;;;;;7.43;2.53;;;;;;;9.66;58.01;100484.81;5013830;23;20131;-94
2023/04/05 11:09:15;;;;;;;4.80;2.20;;;;;;;9.20;60.96;100521.72;4978085;23;20081;-95
2023/04/05 11:12:35;;;;;;;5.82;1.90;;;;;;;8.90;61.74;100480.94;4950244;28;20092;-95
2023/04/05 11:41:38;;;;;;;8.00;2.45;;;;;;;9.75;60.66;100504.50;4957275;29;20058;-93
2023/04/05 11:44:21;;;;;;;8.32;2.38;;;;;;;9.78;61.46;100502.34;4935804;29;20130;-94
2023/04/05 11:46:50;;;;;;;13.30;3.40;;;;;;;9.74;61.73;100509.03;4962361;28;20040;-93
2023/04/05 11:49:29;;;;;;;6.68;2.80;;;;;;;9.59;61.74;100526.72;4940726;28;20036;-93
2023/04/05 11:51:58;;;;;;;5.75;2.50;;;;;;;9.49;62.00;100494.63;4959015;29;20030;-94
2023/04/05 11:54:54;;;;;;;7.70;2.63;;;;;;;9.91;61.69;100512.66;4950822;29;20039;-89
2023/04/05 12:04:09;;;;;;;4.97;2.10;;;;;;;9.19;64.86;100520.06;4975724;28;20078;-92
2023/04/05 12:06:40;;;;;;;8.05;3.33;;;;;;;9.19;65.23;100512.00;4916147;29;20044;-91
2023/04/05 12:09:16;;;;;;;5.55;2.50;;;;;;;8.95;65.53;100493.88;4919862;29;20048;-93
2023/04/05 12:11:52;;;;;;;7.25;2.45;;;;;;;8.57;66.99;100499.41;4935027;29;20141;-91
2023/04/05 12:17:53;;;;;;;4.78;2.75;;;;;;;9.66;65.29;100501.75;4943700;29;20088;-93
2023/04/05 12:20:40;;;;;;;7.55;3.08;;;;;;;10.09;63.34;100499.97;4932284;29;20036;-94
2023/04/05 12:26:37;;;;;;;5.72;3.17;;;;;;;10.74;59.17;100483.19;4943352;29;20411;-91
2023/04/05 12:29:17;;;;;;;8.45;3.30;;;;;;;11.25;58.47;100482.22;4962416;28;20047;-89
2023/04/05 12:31:51;;;;;;;7.05;3.20;;;;;;;11.51;57.07;100490.91;4961052;28;20103;-92
2023/04/05 12:34:28;;;;;;;5.78;3.45;;;;;;;11.08;56.72;100471.47;4935575;29;20043;-90
2023/04/05 12:36:58;;;;;;;6.78;3.80;;;;;;;11.08;57.64;100471.47;4957707;28;20031;-89
2023/04/05 12:39:26;;;;;;;5.50;3.58;;;;;;;11.21;57.49;100481.69;4945564;29;20066;-89
2023/04/05 12:42:11;;;;;;;13.65;3.92;;;;;;;10.78;58.87;100460.34;4904502;29;20076;-89
2023/04/05 12:48:29;;;;;;;;;;;;;;;;;;;;;
2023/04/05 12:51:02;;;;;;;7.25;3.72;;;;;;;10.84;58.61;100476.81;4921299;29;20054;-89
2023/04/05 12:53:46;;;;;;;6.85;4.20;;;;;;;10.46;60.21;100497.94;4912904;29;20424;-92
2023/04/05 12:56:15;;;;;;;5.20;3.90;;;;;;;9.89;61.57;100504.75;4912509;29;20039;-88
2023/04/05 12:58:45;;;;;;;5.60;3.88;;;;;;;9.32;63.54;100498.19;4918412;29;20286;-90
2023/04/05 13:01:39;;;;;;;7.82;4.13;;;;;;;9.39;64.20;100510.84;4898147;29;20044;-92
2023/04/05 13:04:13;;;;;;;5.82;3.97;;;;;;;9.35;64.57;100508.63;5076601;23;20067;-92
2023/04/05 13:06:40;;;;;;;5.82;4.22;;;;;;;8.97;65.25;100495.41;5165424;23;20055;-92
2023/04/05 13:09:17;;;;;;;8.02;4.25;;;;;;;9.22;65.22;100492.91;4912940;29;20043;-91
2023/04/05 13:11:52;;;;;;;6.60;4.00;;;;;;;9.60;64.17;100506.91;4926485;29;20048;-91
2023/04/05 13:28:12;;;;;;;;;;;;;;;;;;;;;
2023/04/05 13:31:28;;;;;;;7.60;3.72;;;;;;;9.86;61.80;100472.84;5211132;23;20119;-92
2023/04/05 13:34:00;;;;;;;6.13;4.20;;;;;;;9.67;62.73;100481.16;4937190;29;20067;-93
2023/04/05 13:36:47;;;;;;;8.43;4.30;;;;;;;9.65;62.31;100488.53;4923301;29;21228;-93
2023/04/05 13:39:36;;;;;;;9.23;4.25;;;;;;;9.55;62.90;100501.19;4909069;29;20048;-94
2023/04/05 13:45:13;;;;;;;9.43;5.45;;;;;;;9.58;63.37;100499.03;5239220;23;20051;-93
2023/04/05 13:48:24;;;;;;;8.88;5.00;;;;;;;9.55;63.39;100477.03;4899237;29;20056;-94
2023/04/05 14:13:38;;;;;;;11.23;7.20;;;;;;;9.36;64.39;100505.75;4705902;23;20040;-96
2023/04/05 14:19:05;;;;;;;11.82;6.55;;;;;;;8.93;65.59;100469.91;5015050;23;20197;-96
2023/04/05 14:22:32;;;;;;;8.40;6.57;;;;;;;9.18;65.33;100518.38;4972119;28;20050;-93
2023/04/05 14:41:51;;;;;;;;;;;;;;;;;;;;;
2023/04/05 14:45:00;;;;;;;10.73;7.03;;;;;;;8.50;68.20;100498.31;5062061;23;20035;-95
2023/04/05 14:48:11;;;;;;;14.82;7.78;;;;;;;8.41;68.40;100485.84;4947196;28;20133;-94
2023/04/05 15:03:43;;;;;;;14.38;7.82;;;;;;;8.05;70.06;100491.06;4953535;29;20043;-95
2023/04/05 15:24:01;;;;;;;20.52;11.70;;;;;;;8.36;71.21;100549.72;4940228;28;20142;-94
2023/04/05 15:50:57;;;;;;;17.33;10.63;;;;;;;8.61;70.60;100551.69;2552275;23;20045;31
2023/04/05 15:53:24;;;;;;;12.95;9.05;;;;;;;8.32;70.87;100516.16;4904644;29;20132;-91
2023/04/05 15:55:57;;;;;;;20.55;9.68;;;;;;;8.36;70.91;100509.53;4900788;29;20063;-92
2023/04/05 15:59:13;;;;;;;;;;;;;;;;;;;;;
2023/04/05 16:02:08;;;;;;;15.13;9.57;;;;;;;8.25;71.42;100506.03;4922497;29;20055;-90
2023/04/05 16:04:56;;;;;;;22.38;10.23;;;;;;;8.54;71.39;100542.56;4902621;29;20473;-89
2023/04/05 16:11:14;;;;;;;;;;;;;;;;;;;;;
2023/04/05 16:17:26;;;;;;;13.23;9.55;;;;;;;8.23;69.82;100521.41;4926526;29;20066;-92
2023/04/05 16:24:25;;;;;;;;;;;;;;;;;;;;;
2023/04/05 16:39:12;;;;;;;16.48;11.95;;;;;;;7.85;71.19;100525.13;5662616;23;20089;-94
2023/04/05 16:41:38;;;;;;;16.02;10.57;;;;;;;7.74;70.94;100506.56;4969538;28;20039;-94
2023/04/05 16:47:23;;;;;;;;;;;;;;;;;;;;;
2023/04/05 16:49:54;;;;;;;14.95;10.70;;;;;;;7.68;70.68;100526.72;4935613;29;20146;-90
2023/04/05 16:52:23;;;;;;;15.50;11.50;;;;;;;7.59;70.87;100515.06;4917632;29;20096;-91
2023/04/05 16:55:04;;;;;;;16.08;11.23;;;;;;;7.81;70.57;100540.63;4943105;29;20042;-94
2023/04/05 16:57:35;;;;;;;17.60;11.43;;;;;;;7.66;70.65;100530.53;4944241;29;20067;-90
2023/04/05 17:03:36;;;;;;;16.02;11.35;;;;;;;7.95;70.22;100579.47;4936445;29;20051;-95
2023/04/05 17:06:04;;;;;;;23.58;12.35;;;;;;;7.69;70.22;100547.13;4933704;29;20468;-90
2023/04/05 17:08:37;;;;;;;16.90;11.70;;;;;;;7.85;69.64;100543.84;4919024;29;20145;-92
2023/04/05 17:11:08;;;;;;;19.70;12.43;;;;;;;7.61;70.66;100555.06;4935177;29;20422;-89
2023/04/05 17:13:38;;;;;;;26.65;12.88;;;;;;;7.97;70.41;100576.66;4938029;28;20389;-93
2023/04/05 17:16:18;;;;;;;15.07;11.70;;;;;;;7.73;70.75;100543.19;4887018;29;20449;-90
2023/04/05 17:18:45;;;;;;;17.95;12.45;;;;;;;7.91;70.71;100574.53;4938483;29;20477;-90
2023/04/05 17:21:17;;;;;;;15.13;11.48;;;;;;;7.67;71.42;100553.63;4954575;29;20412;-90
2023/04/05 17:23:46;;;;;;;20.17;11.90;;;;;;;7.74;71.53;100558.25;4942558;29;20043;-93
2023/04/05 17:26:14;;;;;;;20.77;12.25;;;;;;;7.72;70.96;100565.56;4893732;29;20119;-92
2023/04/05 17:28:54;;;;;;;18.20;11.05;;;;;;;7.87;70.93;100591.91;4927822;29;20217;-94
2023/04/05 17:31:32;;;;;;;22.02;12.20;;;;;;;7.49;70.44;100573.09;4927276;29;20050;-93
2023/04/05 17:34:00;;;;;;;21.50;12.75;;;;;;;7.67;71.59;100575.88;4904350;29;20043;-91
2023/04/05 17:36:41;;;;;;;21.50;14.05;;;;;;;7.75;71.03;100601.91;4914970;29;20127;-92
2023/04/05 17:39:07;;;;;;;14.90;11.50;;;;;;;7.60;70.59;100577.44;4922955;29;20039;-88
2023/04/05 17:41:35;;;;;;;;;;;;;;;7.80;71.02;100602.34;4942413;29;20119;-90
2023/04/05 17:44:19;;;;;;;15.38;11.23;;;;;;;7.73;70.07;100591.38;4919994;29;20279;-88
2023/04/05 17:46:45;;;;;;;17.15;11.95;;;;;;;7.69;70.55;100611.38;4899200;29;20054;-91
2023/04/05 17:49:48;;;;;;;16.25;11.68;;;;;;;7.52;70.08;100578.16;4936586;28;20137;-95
2023/04/05 17:55:49;;;;;;;25.42;16.27;;;;;;;7.73;70.62;100615.44;4943374;28;20053;-90
2023/04/05 17:58:14;;;;;;;22.92;16.45;;;;;;;7.68;71.01;100598.97;4922008;29;20151;-91
2023/04/05 18:00:54;;;;;;;22.95;15.20;;;;;;;7.80;70.83;100613.88;4930693;29;20476;-91
2023/04/05 18:03:33;;;;;;;23.63;14.85;;;;;;;7.72;69.91;100594.16;4938565;29;20121;-93
2023/04/05 18:06:18;;;;;;;20.30;13.77;;;;;;;7.78;70.70;100631.91;4920109;29;20054;-94
2023/04/05 18:09:07;;;;;;;21.20;14.35;;;;;;;7.68;69.97;100598.97;4920814;29;20404;-93
2023/04/05 18:12:11;;;;;;;21.83;15.00;;;;;;;7.44;70.69;100587.88;4917445;29;20036;-94
2023/04/05 18:14:39;;;;;;;23.83;14.23;;;;;;;7.39;71.14;100586.47;4924286;29;20456;-89
2023/04/05 18:17:07;;;;;;;20.40;14.23;;;;;;;7.42;71.47;100605.91;4916892;29;20068;-92
2023/04/05 18:19:43;;;;;;;20.65;13.15;;;;;;;7.29;71.65;100592.81;4899020;29;20560;-90
2023/04/05 18:22:16;;;;;;;18.27;12.55;;;;;;;7.42;71.45;100619.28;4914503;29;20417;-93
2023/04/05 18:24:44;;;;;;;17.23;12.80;;;;;;;7.48;71.20;100629.41;4939502;29;20146;-92
2023/04/05 18:27:36;;;;;;;19.52;12.90;;;;;;;7.53;71.32;100632.50;4927373;29;20051;-94
2023/04/05 18:30:06;;;;;;;21.30;11.70;;;;;;;7.54;71.61;100644.91;4925261;29;20051;-92
2023/04/05 18:32:40;;;;;;;18.65;13.25;;;;;;;7.42;71.44;100636.16;4947119;29;20475;-93
2023/04/05 18:35:13;;;;;;;17.33;13.50;;;;;;;7.55;71.37;100650.09;4919459;29;20178;-91
2023/04/05 18:37:41;;;;;;;24.00;14.30;;;;;;;7.57;71.25;100644.63;4953775;29;20110;-93
2023/04/05 18:50:27;;;;;;;15.85;12.02;;;;;;;7.39;70.23;100636.44;4960707;28;20444;-92
2023/04/05 18:52:53;;;;;;;14.25;11.32;;;;;;;7.28;70.54;100637.44;4933158;29;20056;-88
2023/04/05 18:55:20;;;;;;;;;;;;;;;7.36;70.21;100636.75;4931281;29;20051;-87
2023/04/05 18:57:52;;;;;;;18.10;11.32;;;;;;;7.12;70.85;100637.16;4936748;29;20425;-88
2023/04/05 19:00:24;;;;;;;14.50;11.63;;;;;;;6.86;71.07;100608.28;4940419;29;20047;-89
2023/04/05 19:02:52;;;;;;;14.57;11.40;;;;;;;6.91;71.17;100602.53;4923776;29;20043;-90
2023/04/05 19:05:18;;;;;;;15.35;11.65;;;;;;;6.95;71.26;100612.78;4918365;29;20048;-88
2023/04/05 19:07:44;;;;;;;15.70;12.52;;;;;;;7.03;71.47;100619.28;4924365;29;20082;-87
2023/04/05 19:10:18;;;;;;;19.77;13.55;;;;;;;7.04;71.05;100603.06;4920049;29;20118;-90
2023/04/05 19:15:50;;;;;;;23.65;13.70;;;;;;;7.16;71.30;100625.19;5897078;23;20018;-92
2023/04/05 19:21:23;;;;;;;30.25;20.05;;;;;;;7.34;70.84;100639.53;4934094;28;20089;-91
2023/04/05 19:27:37;;;;;;;43.05;26.30;;;;;;;7.04;71.26;100626.31;4910910;29;20040;-90
2023/04/05 19:30:19;;;;;;;;;;;;;;;;;;;;;
2023/04/05 19:33:08;;;;;;;30.88;20.17;;;;;;;6.84;71.42;100618.25;4890832;29;20070;-91
2023/04/05 19:35:40;;;;;;;32.47;20.23;;;;;;;6.86;71.77;100624.31;4912377;28;20050;-90
2023/04/05 19:38:11;;;;;;;25.98;18.55;;;;;;;7.01;71.53;100627.44;4913022;28;20559;-93
2023/04/05 19:40:37;;;;;;;20.83;15.43;;;;;;;6.84;71.52;100618.25;4930608;28;20046;-91
2023/04/05 19:43:08;;;;;;;22.02;15.10;;;;;;;6.78;72.14;100610.78;4917476;28;20050;-90
2023/04/05 19:46:19;;;;;;;;;;;;;;;;;;;;;
2023/04/05 19:49:01;;;;;;;;;;;;;;;;;;;;;
2023/04/05 19:51:35;;;;;;;18.38;13.55;;;;;;;6.85;72.07;100611.91;4930867;28;20057;-91
2023/04/05 19:54:36;;;;;;;;;;;;;;;;;;;;;
2023/04/05 19:57:08;;;;;;;20.13;14.68;;;;;;;6.82;72.75;100625.56;4964040;28;20137;-94
2023/04/05 20:00:05;;;;;;;20.30;15.32;;;;;;;6.84;72.57;100622.78;4956640;28;20046;-92
2023/04/05 20:03:19;;;;;;;24.33;15.75;;;;;;;6.69;73.10;100590.22;4963757;28;20038;-92
2023/04/05 20:06:17;;;;;;;21.58;14.73;;;;;;;6.68;72.31;100588.56;4902110;29;20139;-93
2023/04/05 20:08:57;;;;;;;19.00;13.95;;;;;;;6.71;72.38;100615.00;4888431;28;20059;-90
2023/04/05 20:12:22;;;;;;;;;;;;;;;;;;;;;
2023/04/05 20:22:46;;;;;;;17.45;12.80;;;;;;;6.57;72.89;100591.34;5201167;23;20137;-89
2023/04/05 20:25:41;;;;;;;17.52;12.55;;;;;;;6.82;72.69;100638.94;4899372;29;20081;-92
2023/04/05 20:32:06;;;;;;;22.85;14.38;;;;;;;6.57;72.66;100588.66;4906394;29;20060;-89
2023/04/05 20:37:51;;;;;;;16.98;12.75;;;;;;;6.71;72.56;100596.28;5282884;23;20059;-88
2023/04/05 20:40:30;;;;;;;15.90;12.25;;;;;;;6.63;72.22;100580.13;4909328;29;20535;-94
2023/04/05 20:43:12;;;;;;;16.73;12.85;;;;;;;6.56;72.47;100574.47;4906962;29;20052;-90
2023/04/05 20:46:04;;;;;;;17.88;12.00;;;;;;;6.63;72.76;100585.47;4887208;29;20052;-92
2023/04/05 20:48:31;;;;;;;13.18;10.57;;;;;;;6.71;72.43;100590.94;4888673;29;20055;-90
2023/04/05 20:58:16;;;;;;;14.02;10.45;;;;;;;6.41;73.17;100576.66;4880475;29;20125;-92
2023/04/05 21:01:19;;;;;;;13.77;10.18;;;;;;;6.57;73.56;100605.53;4928744;29;20047;-89
2023/04/05 21:04:09;;;;;;;14.73;10.10;;;;;;;6.67;73.38;100608.22;4923414;29;20080;-88
2023/04/05 21:07:21;;;;;;;12.90;9.93;;;;;;;6.64;73.47;100609.34;4896241;29;20040;-89
2023/04/05 21:16:46;;;;;;;12.60;9.85;;;;;;;6.18;74.06;100567.16;4899299;29;20089;-90
2023/04/05 21:26:02;;;;;;;11.98;9.40;;;;;;;6.20;74.00;100570.53;4897616;29;20071;-90
2023/04/05 21:28:57;;;;;;;14.90;9.52;;;;;;;6.38;74.05;100613.50;4901942;29;20052;-91
2023/04/05 21:32:05;;;;;;;11.77;9.13;;;;;;;6.40;73.81;100612.38;4882374;29;20052;-91
2023/04/05 21:34:42;;;;;;;12.68;8.80;;;;;;;6.12;73.50;100574.75;4939968;29;20087;-90
2023/04/05 21:40:40;;;;;;;13.55;8.93;;;;;;;6.17;73.58;100600.19;4950503;29;20111;-87
2023/04/05 21:43:36;;;;;;;14.68;8.80;;;;;;;6.27;73.52;100606.41;4946349;29;20047;-91
2023/04/05 21:46:10;;;;;;;12.20;8.80;;;;;;;6.06;73.63;100580.63;4946051;29;20054;-90
2023/04/05 21:48:38;;;;;;;12.50;8.65;;;;;;;5.99;73.41;100562.59;4934392;29;20035;-91
2023/04/05 21:51:08;;;;;;;11.43;8.73;;;;;;;6.16;73.58;100596.69;4943247;29;20043;-92
2023/04/05 21:53:48;;;;;;;12.02;8.45;;;;;;;6.10;73.70;100583.84;4942589;28;20098;-93
2023/04/05 21:56:17;;;;;;;12.63;8.40;;;;;;;6.08;73.70;100592.00;4929162;29;20107;-90
2023/04/05 21:58:46;;;;;;;11.65;8.15;;;;;;;6.13;73.60;100591.59;4934749;29;20043;-90
2023/04/05 22:01:23;;;;;;;10.68;8.18;;;;;;;5.97;73.29;100549.41;4923087;29;20166;-90
2023/04/05 22:03:54;;;;;;;10.68;7.78;;;;;;;6.32;73.14;100601.50;4949797;29;20047;-89
2023/04/05 22:06:23;;;;;;;12.80;8.63;;;;;;;6.13;72.78;100573.78;4923392;29;20481;-90
2023/04/05 22:08:53;;;;;;;12.27;8.52;;;;;;;6.12;72.40;100561.38;4932020;29;20106;-89
2023/04/05 22:11:19;;;;;;;12.77;8.73;;;;;;;6.06;72.44;100572.63;4929392;29;20052;-92
2023/04/05 22:13:53;;;;;;;12.35;7.82;;;;;;;5.94;72.73;100560.31;4936023;29;20083;-93
2023/04/05 22:17:01;;;;;;;11.63;7.93;;;;;;;6.08;72.99;100597.31;4934573;29;20110;-94
2023/04/05 22:23:32;;;;;;;12.52;8.13;;;;;;;5.86;73.10;100578.81;4909543;29;20136;-95
2023/04/05 22:26:11;;;;;;;11.65;8.20;;;;;;;5.84;73.50;100572.75;4895559;29;20062;-92
2023/04/05 22:28:50;;;;;;;13.05;7.80;;;;;;;5.86;73.39;100570.81;4878906;29;20051;-93
2023/04/05 22:31:16;;;;;;;12.45;8.35;;;;;;;5.75;73.33;100553.03;4870140;29;20049;-90
2023/04/05 22:34:07;;;;;;;12.73;8.95;;;;;;;5.79;73.62;100558.97;4856286;29;20109;-94
2023/04/05 22:37:06;;;;;;;14.90;8.25;;;;;;;5.63;73.65;100554.94;4882620;29;20056;-94
2023/04/05 22:39:42;;;;;;;12.80;8.25;;;;;;;5.50;73.80;100539.16;4861132;29;20146;-93